Time;durP1;ratioP1;P1;durP2;ratioP2;P2;SDS_P1;SDS_P2;PMS_P1;PMS_P2;Temp;Humidity;BMP_temperature;BMP_pressure;BME280_temperature;BME280_humidity;BME280_pressure;Samples;Min_cycle;Max_cycle;Signal;HPM_P1;HPM_P2
2022/03/30 00:01:06;;;;;;;;;8.25;8.25;;;;;17.98;46.52;100950.00;4913461;29;9665;-73
2022/03/30 00:03:32;;;;;;;;;6.75;6.75;;;;;17.97;46.85;100952.66;4914305;29;8857;-73
2022/03/30 00:05:57;;;;;;;;;4.75;4.75;;;;;17.95;46.53;100947.41;4914003;29;8840;-73
2022/03/30 00:08:22;;;;;;;;;8.25;6.50;;;;;17.97;46.81;100955.28;4913465;29;8800;-73
2022/03/30 00:10:47;;;;;;;;;4.75;4.75;;;;;17.96;46.58;100945.63;4914232;29;8816;-74
2022/03/30 00:13:13;;;;;;;;;4.00;4.00;;;;;17.96;46.64;100946.47;4916786;29;8947;-73
2022/03/30 00:15:38;;;;;;;;;6.50;4.00;;;;;17.97;46.50;100944.72;4913577;29;8815;-73
2022/03/30 00:18:03;;;;;;;;;5.00;5.00;;;;;17.96;46.46;100940.34;4913770;29;9006;-73
2022/03/30 00:20:29;;;;;;;;;5.00;5.00;;;;;17.96;46.45;100938.56;4914166;29;8812;-73
2022/03/30 00:22:54;;;;;;;;;4.75;4.75;;;;;17.94;46.54;100950.03;4912883;29;8819;-72
2022/03/30 00:25:20;;;;;;;;;7.00;5.00;;;;;17.94;46.67;100948.28;4913993;29;8863;-73
2022/03/30 00:27:46;;;;;;;;;4.25;4.00;;;;;17.96;46.50;100937.72;4914174;29;8800;-73
2022/03/30 00:30:15;;;;;;;;;4.75;4.75;;;;;17.95;46.76;100941.22;4913164;29;9497;-72
2022/03/30 00:32:41;;;;;;;;;4.50;4.50;;;;;17.95;46.58;100944.75;4914174;29;9606;-72
2022/03/30 00:35:07;;;;;;;;;7.50;5.00;;;;;17.94;46.76;100945.63;4913707;29;9713;-72
2022/03/30 00:37:34;;;;;;;;;4.75;4.75;;;;;17.94;46.67;100937.72;4913411;29;8971;-73
2022/03/30 00:39:59;;;;;;;;;4.75;4.75;;;;;17.93;46.71;100937.69;4913396;29;9591;-73
2022/03/30 00:42:25;;;;;;;;;6.25;4.75;;;;;17.93;46.70;100938.59;4913705;29;9679;-72
2022/03/30 00:44:51;;;;;;;;;4.00;4.00;;;;;17.91;46.24;100934.22;4913267;29;8975;-74
2022/03/30 00:47:19;;;;;;;;;7.75;7.00;;;;;17.88;46.75;100928.03;4913793;29;9533;-73
2022/03/30 00:49:45;;;;;;;;;6.25;5.75;;;;;17.89;46.66;100931.56;4913025;29;9616;-73
2022/03/30 00:52:12;;;;;;;;;7.75;7.25;;;;;17.90;46.50;100924.53;4913422;29;9603;-73
2022/03/30 00:54:38;;;;;;;;;3.00;3.00;;;;;17.89;46.64;100921.00;4913931;29;8903;-73
2022/03/30 00:57:07;;;;;;;;;5.50;4.50;;;;;17.88;46.57;100920.13;4912952;29;9604;-73
2022/03/30 00:59:33;;;;;;;;;4.75;4.75;;;;;17.88;46.50;100914.84;4913641;29;8796;-73
2022/03/30 01:02:00;;;;;;;;;3.50;2.50;;;;;17.87;46.45;100917.50;4913395;29;9684;-72
2022/03/30 01:04:28;;;;;;;;;5.50;4.50;;;;;17.88;46.44;100915.75;4913054;29;8800;-73
2022/03/30 01:06:54;;;;;;;;;7.50;6.50;;;;;17.86;46.61;100913.97;4913040;29;9725;-74
2022/03/30 01:09:20;;;;;;;;;3.50;3.50;;;;;17.86;46.46;100910.47;4913657;29;9676;-73
2022/03/30 01:11:47;;;;;;;;;4.25;4.25;;;;;17.86;46.71;100906.06;4913198;29;8809;-73
2022/03/30 01:14:13;;;;;;;;;8.25;7.00;;;;;17.86;46.53;100903.41;4915429;29;8820;-73
2022/03/30 01:16:41;;;;;;;;;5.00;5.00;;;;;17.86;46.57;100902.53;4913639;29;9695;-73
2022/03/30 01:19:08;;;;;;;;;6.50;6.50;;;;;17.85;46.44;100893.72;4912678;29;9807;-72
2022/03/30 01:21:39;;;;;;;;;7.00;5.00;;;;;17.84;46.37;100893.75;4913377;29;10582;-72
2022/03/30 01:24:09;;;;;;;;;4.00;4.00;;;;;17.84;46.15;100891.13;4912923;29;9725;-74
2022/03/30 01:26:35;;;;;;;;;7.00;7.00;;;;;17.85;46.71;100890.22;4912990;29;9583;-74
2022/03/30 01:32:24;;;;;;;;;6.00;4.50;;;;;17.85;46.38;100899.00;4913232;29;9503;-73
2022/03/30 01:34:30;;;;;;;;;6.50;6.50;;;;;17.82;46.48;100891.13;4913276;29;9614;-73
2022/03/30 01:36:55;;;;;;;;;7.00;4.50;;;;;17.82;46.39;100885.84;4913043;29;9776;-73
2022/03/30 01:39:21;;;;;;;;;4.25;4.25;;;;;17.82;46.50;100883.19;4912679;29;8872;-73
2022/03/30 01:41:46;;;;;;;;;4.25;4.25;;;;;17.82;46.67;100874.41;4913282;29;8800;-72
2022/03/30 01:44:11;;;;;;;;;4.00;4.00;;;;;17.82;46.52;100874.41;4912771;29;8816;-73
2022/03/30 01:46:38;;;;;;;;;4.00;4.00;;;;;17.81;46.47;100880.56;4912253;29;8885;-72
2022/03/30 01:49:04;;;;;;;;;5.00;5.00;;;;;17.80;46.72;100877.06;4915851;29;8804;-72
2022/03/30 01:51:29;;;;;;;;;4.25;4.25;;;;;17.81;46.56;100868.22;4916832;29;9574;-72
2022/03/30 01:53:57;;;;;;;;;4.00;4.00;;;;;17.80;46.36;100874.44;4915456;29;9600;-73
2022/03/30 01:56:22;;;;;;;;;4.25;4.00;;;;;17.81;46.66;100876.16;4916885;29;8890;-73
2022/03/30 01:58:48;;;;;;;;;7.25;6.25;;;;;17.78;46.43;100868.25;4916485;29;9678;-73
2022/03/30 02:01:14;;;;;;;;;4.75;4.50;;;;;17.78;46.45;100867.38;4915705;29;8832;-73
2022/03/30 02:03:39;;;;;;;;;4.75;4.75;;;;;17.78;46.55;100864.75;4916475;29;8800;-72
2022/03/30 02:06:06;;;;;;;;;3.50;3.00;;;;;17.79;46.63;100862.09;4915899;29;9890;-72
2022/03/30 02:08:32;;;;;;;;;4.25;4.25;;;;;17.77;46.60;100855.09;4916043;29;8844;-73
2022/03/30 02:10:58;;;;;;;;;4.25;4.25;;;;;17.76;46.65;100848.03;4916105;29;9666;-74
2022/03/30 02:13:23;;;;;;;;;4.00;4.00;;;;;17.77;46.25;100860.38;4919032;29;8912;-72
2022/03/30 02:15:48;;;;;;;;;4.75;4.50;;;;;17.78;46.58;100856.81;4915612;29;8847;-72
2022/03/30 02:18:14;;;;;;;;;3.50;3.50;;;;;17.74;46.45;100852.44;4915860;29;8793;-72
2022/03/30 02:20:41;;;;;;;;;4.00;4.00;;;;;17.78;46.52;100859.47;4916436;29;8824;-73
2022/03/30 02:23:09;;;;;;;;;3.25;3.25;;;;;17.74;46.68;100848.03;4915292;29;8907;-73
2022/03/30 02:25:35;;;;;;;;;8.00;7.25;;;;;17.75;46.44;100849.81;4916294;29;9430;-73
2022/03/30 02:28:00;;;;;;;;;5.00;5.00;;;;;17.76;46.44;100845.41;4915090;29;9597;-73
2022/03/30 02:30:25;;;;;;;;;4.75;4.75;;;;;17.75;46.23;100843.66;4915867;29;11609;-73
2022/03/30 02:32:50;;;;;;;;;4.25;4.00;;;;;17.73;46.54;100835.72;4916223;29;8864;-72
2022/03/30 02:35:18;;;;;;;;;4.00;4.00;;;;;17.74;46.66;100836.59;4915260;29;8797;-73
2022/03/30 02:37:46;;;;;;;;;3.50;3.50;;;;;17.73;46.61;100834.88;4916090;29;8797;-73
2022/03/30 02:40:12;;;;;;;;;7.25;5.50;;;;;17.75;46.60;100841.88;4915656;29;9528;-73
2022/03/30 02:42:37;;;;;;;;;4.50;2.75;;;;;17.72;46.41;100834.00;4915103;29;10697;-72
2022/03/30 02:45:03;;;;;;;;;6.75;4.75;;;;;17.74;46.32;100833.97;4915606;29;8825;-73
2022/03/30 02:50:13;;;;;;;;;4.00;4.00;;;;;17.71;46.13;100823.44;4914797;29;9502;-73
2022/03/30 02:52:38;;;;;;;;;5.50;4.00;;;;;17.69;46.41;100814.66;4915641;29;9570;-73
2022/03/30 02:55:04;;;;;;;;;4.00;3.00;;;;;17.71;46.83;100812.88;4915164;29;8944;-73
2022/03/30 02:57:29;;;;;;;;;4.00;4.00;;;;;17.67;46.58;100804.09;4914860;29;8824;-73
2022/03/30 02:59:55;;;;;;;;;2.75;1.00;;;;;17.71;46.62;100804.94;4915520;29;8891;-73
2022/03/30 03:02:20;;;;;;;;;4.75;3.75;;;;;17.69;46.55;100804.09;4915436;29;8801;-72
2022/03/30 03:04:46;;;;;;;;;5.25;4.00;;;;;17.67;46.54;100793.53;4914792;29;8816;-72
2022/03/30 03:07:11;;;;;;;;;6.00;4.00;;;;;17.69;46.62;100797.06;4915067;29;8840;-73
2022/03/30 03:09:36;;;;;;;;;4.25;3.25;;;;;17.70;46.56;100789.97;4915276;29;8943;-73
2022/03/30 03:12:01;;;;;;;;;5.00;5.00;;;;;17.68;46.37;100794.41;4916629;29;8788;-72
2022/03/30 03:14:27;;;;;;;;;7.25;4.75;;;;;17.67;46.35;100790.91;4915847;29;9691;-73
2022/03/30 03:16:52;;;;;;;;;4.50;4.50;;;;;17.67;46.69;100784.72;4915154;29;8860;-73
2022/03/30 03:19:17;;;;;;;;;3.00;3.00;;;;;17.65;46.50;100794.44;4914315;29;8986;-73
2022/03/30 03:21:42;;;;;;;;;5.25;5.25;;;;;17.67;46.43;100787.38;4915308;29;8875;-74
2022/03/30 03:24:08;;;;;;;;;4.50;4.00;;;;;17.66;46.41;100789.13;4914593;29;8830;-73
2022/03/30 03:26:33;;;;;;;;;3.50;2.75;;;;;17.65;46.25;100790.03;4914330;29;8886;-73
2022/03/30 03:28:58;;;;;;;;;4.25;3.25;;;;;17.66;46.57;100789.13;4914492;29;8796;-73
2022/03/30 03:31:24;;;;;;;;;3.50;2.75;;;;;17.65;46.51;100794.44;4914478;29;8793;-73
2022/03/30 03:33:49;;;;;;;;;4.00;4.00;;;;;17.65;46.23;100800.59;4914996;29;8843;-73
2022/03/30 03:36:14;;;;;;;;;3.00;3.00;;;;;17.64;46.47;100805.88;4914829;29;8792;-73
2022/03/30 03:38:40;;;;;;;;;4.25;3.00;;;;;17.63;46.46;100802.38;4914257;29;8827;-73
2022/03/30 03:41:06;;;;;;;;;4.00;4.00;;;;;17.69;46.29;100806.75;4914651;29;8828;-72
2022/03/30 03:43:31;;;;;;;;;4.00;3.50;;;;;17.63;46.33;100806.75;4914615;29;8796;-72
2022/03/30 03:45:57;;;;;;;;;5.00;4.25;;;;;17.64;46.29;100808.53;4914088;29;9437;-73
2022/03/30 03:48:22;;;;;;;;;5.00;5.00;;;;;17.63;46.31;100812.03;4915051;29;8931;-73
2022/03/30 03:50:48;;;;;;;;;2.00;2.00;;;;;17.60;46.27;100799.75;4914779;29;8819;-73
2022/03/30 03:53:13;;;;;;;;;4.00;4.00;;;;;17.60;46.06;100797.13;4913827;29;8844;-72
2022/03/30 03:55:38;;;;;;;;;2.75;2.75;;;;;17.61;46.41;100792.72;4914489;29;8804;-73
2022/03/30 03:58:05;;;;;;;;;3.00;3.00;;;;;17.62;46.45;100797.13;4914477;29;8788;-73
2022/03/30 04:00:34;;;;;;;;;3.25;2.00;;;;;17.59;46.25;100790.06;4913961;29;8800;-72
2022/03/30 04:03:00;;;;;;;;;3.50;3.50;;;;;17.61;46.19;100787.44;4913832;29;9623;-72
2022/03/30 04:05:25;;;;;;;;;2.00;2.00;;;;;17.59;45.92;100783.91;4914460;29;9589;-72
2022/03/30 04:07:52;;;;;;;;;4.75;3.25;;;;;17.60;46.20;100778.63;4913533;29;8872;-73
2022/03/30 04:10:18;;;;;;;;;2.25;2.25;;;;;17.61;46.32;100776.88;4913726;29;9737;-72
2022/03/30 04:12:43;;;;;;;;;5.25;4.00;;;;;17.59;46.32;100774.22;4917120;29;8817;-73
2022/03/30 04:15:09;;;;;;;;;2.50;2.50;;;;;17.57;46.14;100767.22;4913387;29;8812;-73
2022/03/30 04:17:34;;;;;;;;;7.25;6.75;;;;;17.59;46.34;100768.06;4914478;29;8800;-73
2022/03/30 04:20:00;;;;;;;;;3.25;2.00;;;;;17.57;46.29;100754.91;4913818;29;8800;-72
2022/03/30 04:22:26;;;;;;;;;2.75;2.75;;;;;17.55;46.18;100763.66;4913503;29;8824;-73
2022/03/30 04:24:51;;;;;;;;;4.00;3.25;;;;;17.55;46.05;100763.66;4913930;29;8809;-73
2022/03/30 04:27:16;;;;;;;;;3.50;3.50;;;;;17.55;46.03;100768.94;4914002;29;8934;-72
2022/03/30 04:29:42;;;;;;;;;4.00;4.00;;;;;17.56;46.15;100765.44;4913299;29;8808;-73
2022/03/30 04:32:08;;;;;;;;;4.00;4.00;;;;;17.57;46.27;100764.59;4913978;29;8832;-73
2022/03/30 04:34:33;;;;;;;;;4.50;4.50;;;;;17.55;46.14;100764.56;4913853;29;8919;-73
2022/03/30 04:36:58;;;;;;;;;2.75;2.75;;;;;17.57;46.00;100767.22;4913078;29;10257;-73
2022/03/30 04:39:23;;;;;;;;;7.50;4.75;;;;;17.55;46.18;100763.66;4914022;29;8839;-73
2022/03/30 04:41:49;;;;;;;;;3.50;3.50;;;;;17.53;45.96;100765.47;4913519;29;8777;-73
2022/03/30 04:44:14;;;;;;;;;3.50;3.50;;;;;17.56;46.00;100768.94;4913687;29;8805;-73
2022/03/30 04:46:39;;;;;;;;;3.25;3.25;;;;;17.55;46.44;100761.91;4913834;29;8808;-73
2022/03/30 04:49:05;;;;;;;;;3.00;3.00;;;;;17.53;45.84;100763.69;4912903;29;8808;-72
2022/03/30 04:51:31;;;;;;;;;2.25;2.25;;;;;17.52;46.04;100764.59;4913605;29;8792;-73
2022/03/30 04:53:56;;;;;;;;;4.25;4.00;;;;;17.50;46.32;100765.50;4913400;29;8832;-73
2022/03/30 04:56:21;;;;;;;;;4.00;3.25;;;;;17.52;46.31;100764.59;4913139;29;8796;-72
2022/03/30 04:58:46;;;;;;;;;4.50;3.75;;;;;17.51;46.32;100768.09;4913887;29;8864;-73
2022/03/30 05:01:12;;;;;;;;;2.50;2.50;;;;;17.49;46.17;100761.97;4913362;29;8843;-73
2022/03/30 05:03:37;;;;;;;;;4.75;4.75;;;;;17.54;47.53;100759.31;4912893;29;8875;-72
2022/03/30 05:06:02;;;;;;;;;5.00;4.00;;;;;17.64;49.52;100759.25;4913049;29;8851;-74
2022/03/30 05:08:28;;;;;;;;;5.50;3.00;;;;;17.68;49.73;100758.31;4913688;29;8843;-76
2022/03/30 05:10:53;;;;;;;;;5.75;4.25;;;;;17.76;48.55;100758.25;4912613;29;8831;-77
2022/03/30 05:13:18;;;;;;;;;4.00;4.00;;;;;17.82;49.07;100761.72;4916372;29;8919;-77
2022/03/30 05:15:43;;;;;;;;;5.00;5.00;;;;;17.90;52.16;100753.72;4913437;29;8784;-76
2022/03/30 05:18:09;;;;;;;;;4.33;4.33;;;;;18.00;55.66;100749.19;4912314;29;8824;-74
2022/03/30 05:20:37;;;;;;;;;4.33;4.33;;;;;18.05;57.64;100745.63;4913351;29;8813;-72
2022/03/30 05:23:03;;;;;;;;;4.33;4.33;;;;;18.10;56.98;100743.84;4914523;29;9656;-71
2022/03/30 05:25:28;;;;;;;;;6.00;5.67;;;;;18.15;55.52;100746.41;4916503;29;9494;-71
2022/03/30 05:27:54;;;;;;;;;5.00;4.00;;;;;18.13;57.25;100740.28;4917169;29;8834;-72
2022/03/30 05:30:20;;;;;;;;;5.75;4.75;;;;;18.16;58.40;100746.41;4917659;29;8891;-71
2022/03/30 05:32:46;;;;;;;;;9.50;6.00;;;;;18.27;58.61;100746.28;4916315;29;9686;-71
2022/03/30 05:35:12;;;;;;;;;9.00;7.75;;;;;18.24;59.93;100746.31;4916835;29;8804;-71
2022/03/30 05:37:38;;;;;;;;;9.50;8.00;;;;;18.20;60.35;100747.25;4917053;29;10001;-71
2022/03/30 05:40:05;;;;;;;;;8.00;6.25;;;;;18.13;59.38;100737.63;4916075;29;9869;-72
2022/03/30 05:42:31;;;;;;;;;4.50;4.50;;;;;18.09;59.27;100736.78;4916891;29;8887;-71
2022/03/30 05:44:56;;;;;;;;;8.00;8.00;;;;;18.07;59.46;100732.44;4916271;29;9691;-71
2022/03/30 05:47:21;;;;;;;;;9.00;6.00;;;;;18.07;59.16;100733.28;4916903;29;8824;-71
2022/03/30 05:49:47;;;;;;;;;5.00;5.00;;;;;18.03;59.33;100728.06;4917177;29;9073;-72
2022/03/30 05:52:12;;;;;;;;;6.25;5.25;;;;;18.04;58.49;100740.34;4915940;29;8836;-72
2022/03/30 05:54:38;;;;;;;;;7.25;7.25;;;;;18.02;58.28;100734.22;4916698;29;8878;-71
2022/03/30 05:57:05;;;;;;;;;14.50;10.25;;;;;18.01;57.71;100732.47;4915076;29;9501;-71
2022/03/30 05:59:38;;;;;;;;;7.00;7.00;;;;;17.99;57.45;100729.88;4915793;29;8827;-71
2022/03/30 06:02:05;;;;;;;;;7.25;5.00;;;;;17.98;57.61;100728.09;4916524;29;10525;-72
2022/03/30 06:04:31;;;;;;;;;5.00;5.00;;;;;17.96;56.99;100727.22;4916644;29;9836;-72
2022/03/30 06:06:57;;;;;;;;;8.00;4.75;;;;;17.96;57.02;100729.88;4915474;29;9710;-71
2022/03/30 06:09:22;;;;;;;;;4.25;4.00;;;;;17.93;56.89;100729.03;4916811;29;8820;-72
2022/03/30 06:11:48;;;;;;;;;7.00;6.50;;;;;17.92;56.48;100729.94;4917130;29;8828;-72
2022/03/30 06:14:16;;;;;;;;;9.75;7.25;;;;;17.92;56.53;100733.44;4918075;29;8892;-73
2022/03/30 06:16:43;;;;;;;;;8.25;6.75;;;;;17.90;55.84;100740.50;4916656;29;8803;-71
2022/03/30 06:19:10;;;;;;;;;8.25;8.25;;;;;17.87;56.00;100740.53;4916396;29;9719;-71
2022/03/30 06:21:36;;;;;;;;;7.00;5.75;;;;;17.89;55.94;100744.03;4915517;29;9673;-71
2022/03/30 06:24:01;;;;;;;;;4.75;4.75;;;;;17.88;55.60;100742.31;4916275;29;9699;-71
2022/03/30 06:26:30;;;;;;;;;7.50;7.00;;;;;17.85;55.15;100748.47;4916354;29;8824;-71
2022/03/30 06:28:56;;;;;;;;;6.00;6.00;;;;;17.85;55.28;100743.19;4915456;29;8915;-70
2022/03/30 06:31:21;;;;;;;;;5.00;4.25;;;;;17.88;55.03;100745.78;4916300;29;9719;-71
2022/03/30 06:33:56;;;;;;;;;4.25;4.25;;;;;17.88;54.64;100749.34;4916374;29;8836;-72
2022/03/30 06:36:21;;;;;;;;;7.00;5.50;;;;;17.90;54.90;100748.44;4916215;29;8963;-72
2022/03/30 06:38:46;;;;;;;;;2.50;2.50;;;;;17.90;54.53;100747.56;4917021;29;9719;-71
2022/03/30 06:41:17;;;;;;;;;6.50;6.50;;;;;17.86;54.34;100744.94;4915168;29;8808;-71
2022/03/30 06:43:46;;;;;;;;;9.25;6.00;;;;;17.87;54.22;100745.84;4916578;29;8808;-71
2022/03/30 06:46:14;;;;;;;;;4.50;4.50;;;;;17.88;54.31;100748.44;4916526;29;9593;-71
2022/03/30 06:48:41;;;;;;;;;8.50;6.50;;;;;17.88;53.83;100742.31;4915817;29;9600;-72
2022/03/30 06:51:07;;;;;;;;;9.00;6.50;;;;;17.90;53.82;100739.63;4916245;29;9696;-72
2022/03/30 06:53:32;;;;;;;;;6.00;5.00;;;;;17.88;53.63;100741.44;4916540;29;9752;-71
2022/03/30 06:55:58;;;;;;;;;5.00;5.00;;;;;17.87;53.53;100740.53;4915490;29;9692;-71
2022/03/30 06:58:23;;;;;;;;;11.00;9.25;;;;;17.87;53.29;100743.19;4916299;29;8820;-72
2022/03/30 07:00:50;;;;;;;;;8.00;5.50;;;;;17.88;53.07;100741.44;4915514;29;9639;-72
2022/03/30 07:03:15;;;;;;;;;5.50;5.50;;;;;17.88;53.22;100743.16;4914569;29;8851;-72
2022/03/30 07:05:40;;;;;;;;;6.25;6.25;;;;;17.88;53.28;100737.03;4915349;29;9597;-71
2022/03/30 07:10:50;;;;;;;;;4.00;4.00;;;;;17.86;53.05;100734.38;4914803;29;8780;-72
2022/03/30 07:13:15;;;;;;;;;6.25;6.25;;;;;17.86;52.91;100739.66;4917640;29;9773;-73
2022/03/30 07:15:41;;;;;;;;;7.00;6.00;;;;;17.85;52.81;100732.63;4915125;29;8812;-73
2022/03/30 07:18:08;;;;;;;;;4.50;4.50;;;;;17.85;52.55;100737.91;4914482;29;8792;-72
2022/03/30 07:20:34;;;;;;;;;6.00;6.00;;;;;17.84;52.61;100735.31;4915441;29;9808;-71
2022/03/30 07:23:00;;;;;;;;;4.50;4.25;;;;;17.86;52.36;100729.09;4915096;29;9621;-72
2022/03/30 07:25:26;;;;;;;;;5.50;5.00;;;;;17.86;52.61;100733.50;4914127;29;9632;-71
2022/03/30 07:27:54;;;;;;;;;8.50;7.50;;;;;17.86;52.57;100734.38;4914806;29;8844;-72
2022/03/30 07:30:22;;;;;;;;;3.33;3.00;;;;;17.88;52.25;100733.50;4915239;29;9690;-72
2022/03/30 07:32:49;;;;;;;;;4.00;4.00;;;;;17.85;52.33;100722.06;4914696;29;9359;-72
2022/03/30 07:35:17;;;;;;;;;4.00;4.00;;;;;17.85;52.42;100722.06;4914713;29;9575;-72
2022/03/30 07:37:45;;;;;;;;;3.67;3.67;;;;;17.85;52.06;100716.78;4914458;29;9477;-72
2022/03/30 07:40:12;;;;;;;;;7.00;6.00;;;;;17.85;52.04;100721.19;4914754;29;9439;-72
2022/03/30 07:42:39;;;;;;;;;6.25;6.25;;;;;17.86;52.05;100718.53;4897993;29;9574;-71
2022/03/30 07:45:05;;;;;;;;;6.50;6.50;;;;;17.84;51.81;100708.88;4912967;29;10483;-72
2022/03/30 07:47:31;;;;;;;;;5.25;5.25;;;;;17.86;52.12;100720.31;4914881;29;9621;-71
2022/03/30 07:49:56;;;;;;;;;4.00;4.00;;;;;17.86;51.92;100709.72;4914592;29;9529;-72
2022/03/30 07:52:23;;;;;;;;;3.00;3.00;;;;;17.88;51.83;100712.38;4914084;29;9552;-73
2022/03/30 07:54:49;;;;;;;;;6.00;5.00;;;;;17.85;51.85;100708.84;4914523;29;8844;-72
2022/03/30 07:57:15;;;;;;;;;7.00;4.00;;;;;17.86;51.44;100707.09;4914287;29;10256;-72
2022/03/30 07:59:41;;;;;;;;;7.00;4.25;;;;;17.86;51.45;100717.66;4913891;29;8808;-72
2022/03/30 08:02:07;;;;;;;;;4.75;4.75;;;;;17.87;51.40;100711.50;4914388;29;9488;-71
2022/03/30 08:04:32;;;;;;;;;4.00;4.00;;;;;17.86;51.56;100700.03;4914504;29;8819;-72
2022/03/30 08:06:57;;;;;;;;;5.00;4.00;;;;;17.86;51.31;100702.69;4913458;29;9498;-72
2022/03/30 08:09:23;;;;;;;;;4.50;4.00;;;;;17.88;51.50;100707.09;4914543;29;8824;-70
2022/03/30 08:11:48;;;;;;;;;4.25;3.75;;;;;17.90;51.03;100713.22;4914476;29;8923;-71
2022/03/30 08:14:13;;;;;;;;;4.50;4.50;;;;;17.88;51.10;100709.72;4915601;29;8840;-72
2022/03/30 08:16:39;;;;;;;;;3.00;3.00;;;;;17.87;51.06;100706.22;4914725;29;8808;-72
2022/03/30 08:19:05;;;;;;;;;5.00;3.33;;;;;17.89;51.22;100714.97;4914095;29;8828;-71
2022/03/30 08:24:15;;;;;;;;;5.00;5.00;;;;;17.92;50.95;100714.09;4913842;29;9365;-72
2022/03/30 08:26:41;;;;;;;;;3.75;3.25;;;;;17.89;51.06;100714.97;4913524;29;9391;-72
2022/03/30 08:29:08;;;;;;;;;3.00;3.00;;;;;17.90;51.00;100710.56;4913879;29;8804;-72
2022/03/30 08:31:34;;;;;;;;;3.50;3.50;;;;;17.88;50.43;100714.09;4914414;29;9581;-72
2022/03/30 08:34:00;;;;;;;;;3.00;3.00;;;;;17.88;50.93;100703.53;4912982;29;9461;-72
2022/03/30 08:36:29;;;;;;;;;3.00;3.00;;;;;17.90;50.64;100710.56;4913948;29;9541;-72
2022/03/30 08:38:55;;;;;;;;;4.00;3.75;;;;;17.91;50.64;100705.28;4913740;29;8870;-72
2022/03/30 08:41:21;;;;;;;;;2.75;2.75;;;;;17.92;50.63;100711.44;4913199;29;10379;-71
2022/03/30 08:43:46;;;;;;;;;4.00;3.00;;;;;17.94;50.56;100702.63;4914007;29;9771;-72
2022/03/30 08:46:12;;;;;;;;;4.00;4.00;;;;;17.91;50.72;100697.38;4913691;29;8863;-72
2022/03/30 08:48:38;;;;;;;;;2.75;2.75;;;;;17.94;50.67;100701.72;4913450;29;9146;-72
2022/03/30 08:51:04;;;;;;;;;4.75;3.00;;;;;17.93;50.46;100706.13;4913370;29;9579;-72
2022/03/30 08:53:30;;;;;;;;;3.50;3.50;;;;;17.94;50.45;100694.69;4913637;29;8962;-72
2022/03/30 08:55:55;;;;;;;;;6.50;2.00;;;;;17.96;50.44;100686.75;4912677;29;9482;-72
2022/03/30 08:58:21;;;;;;;;;4.25;3.00;;;;;17.96;50.47;100699.97;4913693;29;9575;-71
2022/03/30 09:00:46;;;;;;;;;2.33;1.67;;;;;17.97;50.26;100697.28;4913933;29;8796;-71
2022/03/30 09:03:15;;;;;;;;;2.25;2.25;;;;;17.96;50.18;100695.53;4913053;29;8899;-71
2022/03/30 09:05:40;;;;;;;;;1.67;1.67;;;;;17.98;50.25;100696.41;4913677;29;8975;-69
2022/03/30 09:08:18;;;;;;;;;4.00;4.00;;;;;18.01;50.38;100700.78;4913493;29;9486;-71
2022/03/30 09:10:46;;;;;;;;;3.50;3.50;;;;;18.03;50.22;100693.72;4913014;29;9567;-72
2022/03/30 09:13:14;;;;;;;;;2.75;2.25;;;;;18.03;50.14;100693.72;4915812;29;9621;-71
2022/03/30 09:15:41;;;;;;;;;2.50;2.50;;;;;18.02;50.12;100694.59;4913599;29;9633;-72
2022/03/30 09:18:09;;;;;;;;;1.00;1.00;;;;;18.04;50.01;100695.44;4912408;29;9367;-71
2022/03/30 09:20:40;;;;;;;;;2.00;2.00;;;;;18.04;49.67;100701.59;4913498;29;9378;-71
2022/03/30 09:23:08;;;;;;;;;4.00;2.00;;;;;18.03;49.82;100702.53;4912677;29;9471;-72
2022/03/30 09:25:34;;;;;;;;;3.75;3.00;;;;;18.03;49.85;100707.81;4913600;29;9273;-72
2022/03/30 09:28:01;;;;;;;;;3.00;3.00;;;;;18.03;49.85;100694.59;4913290;29;9620;-72
2022/03/30 09:30:28;;;;;;;;;3.00;2.75;;;;;18.07;49.65;100692.78;4912587;29;9636;-71
2022/03/30 09:32:56;;;;;;;;;2.75;2.75;;;;;18.08;49.57;100697.16;4912919;29;9427;-72
2022/03/30 09:35:28;;;;;;;;;2.50;2.00;;;;;18.09;49.67;100691.00;4913291;29;9796;-72
2022/03/30 09:38:11;;;;;;;;;2.00;2.00;;;;;18.09;49.70;100683.94;4912476;29;9538;-72
2022/03/30 09:40:48;;;;;;;;;2.00;2.00;;;;;18.08;49.60;100686.59;4913329;29;9356;-71
2022/03/30 09:43:28;;;;;;;;;3.50;2.00;;;;;18.09;49.85;100689.22;4913149;29;9535;-71
2022/03/30 09:46:02;;;;;;;;;2.67;2.67;;;;;18.09;49.73;100678.66;4912428;29;9507;-70
2022/03/30 09:48:28;;;;;;;;;2.67;2.33;;;;;18.12;49.61;100677.75;4913027;29;10265;-72
2022/03/30 09:50:55;;;;;;;;;1.50;1.50;;;;;18.12;49.77;100673.34;4912734;29;9545;-73
2022/03/30 09:53:26;;;;;;;;;1.00;1.00;;;;;18.08;49.55;100671.63;4912377;29;9408;-71
2022/03/30 09:55:58;;;;;;;;;2.25;2.25;;;;;18.12;49.64;100675.97;4913614;29;9421;-71
2022/03/30 09:58:26;;;;;;;;;1.25;1.25;;;;;18.15;49.24;100680.34;4912852;29;9366;-72
2022/03/30 10:01:10;;;;;;;;;3.25;3.25;;;;;18.13;49.38;100671.56;4913547;29;9510;-72
2022/03/30 10:03:42;;;;;;;;;3.75;3.25;;;;;18.16;49.50;100669.78;4912996;29;9433;-72
2022/03/30 10:06:11;;;;;;;;;2.00;1.00;;;;;18.16;49.48;100672.41;4912333;29;9383;-72
2022/03/30 10:08:39;;;;;;;;;2.00;1.00;;;;;18.19;49.32;100674.13;4913672;29;9502;-72
2022/03/30 10:11:04;;;;;;;;;2.25;2.25;;;;;18.19;49.09;100668.84;4916186;29;10448;-72
2022/03/30 10:13:30;;;;;;;;;3.00;3.00;;;;;18.19;49.22;100667.06;4918686;29;9539;-72
2022/03/30 10:16:02;;;;;;;;;2.00;1.00;;;;;18.20;49.34;100668.84;4916397;29;8808;-72
2022/03/30 10:18:29;;;;;;;;;3.25;2.25;;;;;18.20;49.12;100668.84;4916489;29;11542;-72
2022/03/30 10:21:16;;;;;;;;;1.00;1.00;;;;;18.21;49.16;100667.06;4915382;29;9898;-72
2022/03/30 10:24:19;;;;;;;;;1.00;1.00;;;;;18.22;49.24;100666.19;4916650;29;9654;-72
2022/03/30 10:27:21;;;;;;;;;2.75;2.75;;;;;18.22;49.12;100666.19;4915862;29;9709;-71
2022/03/30 10:29:52;;;;;;;;;2.25;2.25;;;;;18.23;49.25;100660.00;4916431;29;9449;-71
2022/03/30 10:32:23;;;;;;;;;2.00;2.00;;;;;18.23;48.82;100662.63;4916098;29;9379;-72
2022/03/30 10:34:57;;;;;;;;;2.00;1.00;;;;;18.23;49.27;100665.28;4915490;29;9401;-72
2022/03/30 10:37:25;;;;;;;;;1.00;1.00;;;;;18.23;49.16;100654.69;4916105;29;9371;-72
2022/03/30 10:40:03;;;;;;;;;1.33;1.33;;;;;18.23;48.77;100660.88;4916174;29;9364;-71
2022/03/30 10:42:47;;;;;;;;;1.33;1.33;;;;;18.23;48.73;100650.28;4915544;29;9377;-71
2022/03/30 10:45:38;;;;;;;;;1.67;1.67;;;;;18.25;48.89;100648.53;4916136;29;9312;-71
2022/03/30 10:48:29;;;;;;;;;1.67;1.67;;;;;18.26;49.13;100641.44;4915235;29;9270;-71
2022/03/30 10:50:56;;;;;;;;;1.67;1.67;;;;;18.26;48.89;100644.97;4915840;29;9295;-72
2022/03/30 10:53:30;;;;;;;;;3.00;1.00;;;;;18.26;48.72;100639.69;4915860;29;9272;-72
2022/03/30 10:56:08;;;;;;;;;1.00;1.00;;;;;18.26;48.67;100630.88;4914928;29;9221;-72
2022/03/30 10:58:35;;;;;;;;;1.00;1.00;;;;;18.29;48.86;100634.38;4916118;29;9352;-72
2022/03/30 11:01:14;;;;;;;;;2.67;1.67;;;;;18.30;48.78;100627.28;4915315;29;9206;-71
2022/03/30 11:04:04;;;;;;;;;3.33;2.33;;;;;18.32;48.50;100623.75;4915238;29;9215;-71
2022/03/30 11:06:31;;;;;;;;;1.67;1.33;;;;;18.31;48.62;100622.00;4915629;29;9445;-71
2022/03/30 11:08:58;;;;;;;;;2.00;1.00;;;;;18.33;48.51;100616.72;4914361;29;9449;-72
2022/03/30 11:11:30;;;;;;;;;2.00;2.00;;;;;18.32;48.31;100617.59;4915715;29;9195;-72
2022/03/30 11:14:28;;;;;;;;;2.00;1.00;;;;;18.34;48.46;100618.44;4917892;29;9436;-72
2022/03/30 11:17:06;;;;;;;;;1.00;1.00;;;;;18.35;48.57;100621.06;4914632;29;9239;-72
2022/03/30 11:19:46;;;;;;;;;2.00;2.00;;;;;18.36;48.43;100606.09;4915024;29;9511;-72
2022/03/30 11:22:28;;;;;;;;;2.00;2.00;;;;;18.37;48.17;100604.31;4914808;29;9454;-72
2022/03/30 11:25:13;;;;;;;;;2.00;2.00;;;;;18.35;48.46;100594.63;4914153;29;9437;-72
2022/03/30 11:27:39;;;;;;;;;1.75;1.25;;;;;18.36;48.16;100606.09;4915287;29;9393;-72
2022/03/30 11:30:11;;;;;;;;;1.00;1.00;;;;;18.40;48.34;100604.28;4914354;29;9367;-72
2022/03/30 11:32:40;;;;;;;;;1.67;0.67;;;;;18.41;48.02;100598.94;4915027;29;9280;-72
2022/03/30 11:35:14;;;;;;;;;2.00;2.00;;;;;18.40;48.06;100591.06;4915467;29;9313;-71
2022/03/30 11:37:45;;;;;;;;;1.67;1.00;;;;;18.42;48.11;100590.13;4914537;29;9315;-72
2022/03/30 11:40:17;;;;;;;;;1.33;1.33;;;;;18.39;47.89;100578.72;4914887;29;9347;-71
2022/03/30 11:42:45;;;;;;;;;2.00;1.67;;;;;18.42;48.07;100584.84;4915140;29;9291;-71
2022/03/30 11:45:13;;;;;;;;;1.00;1.00;;;;;18.44;48.06;100576.91;4913487;29;9286;-71
2022/03/30 11:47:40;;;;;;;;;3.00;2.00;;;;;18.45;48.05;100579.50;4914735;29;9435;-71